Time;durP1;ratioP1;P1;durP2;ratioP2;P2;SDS_P1;SDS_P2;PMS_P1;PMS_P2;Temp;Humidity;BMP_temperature;BMP_pressure;BME280_temperature;BME280_humidity;BME280_pressure;Samples;Min_cycle;Max_cycle;Signal;HPM_P1;HPM_P2
2023/10/29 00:00:28;;;;;;;6.10;2.00;;;9.10;99.90;;;;;;7452235;19;20022;-74
2023/10/29 00:03:02;;;;;;;3.38;1.88;;;9.10;99.90;;;;;;7463718;19;21173;-74
2023/10/29 00:05:34;;;;;;;5.40;2.10;;;9.00;99.90;;;;;;7480158;19;20889;-74
2023/10/29 00:08:09;;;;;;;5.53;1.90;;;9.00;99.90;;;;;;7461924;19;20015;-75
2023/10/29 00:10:41;;;;;;;11.10;2.03;;;9.00;99.90;;;;;;7458780;19;20014;-75
2023/10/29 00:13:13;;;;;;;5.32;2.30;;;9.10;99.90;;;;;;7450334;19;20109;-75
2023/10/29 00:15:47;;;;;;;4.30;2.10;;;9.10;99.90;;;;;;7456404;19;20082;-74
2023/10/29 00:18:19;;;;;;;;;;;9.10;99.90;;;;;;7451590;19;20014;-74
2023/10/29 00:20:52;;;;;;;3.00;2.00;;;9.00;99.90;;;;;;7488668;19;19918;-76
2023/10/29 00:23:25;;;;;;;4.40;2.22;;;9.00;99.90;;;;;;7471901;19;21558;-74
2023/10/29 00:25:58;;;;;;;5.75;1.95;;;9.00;99.90;;;;;;7448643;19;20034;-75
2023/10/29 00:28:30;;;;;;;2.85;1.50;;;9.00;99.90;;;;;;7466173;19;20326;-76
2023/10/29 00:31:03;;;;;;;7.05;1.73;;;9.00;99.90;;;;;;7461490;19;20019;-76
2023/10/29 00:33:36;;;;;;;3.88;2.00;;;9.00;99.90;;;;;;7464978;19;20029;-74
2023/10/29 00:36:09;;;;;;;3.22;1.80;;;9.20;99.90;;;;;;7461295;19;20015;-75
2023/10/29 00:38:41;;;;;;;5.40;1.95;;;9.10;99.90;;;;;;7487456;19;21404;-75
2023/10/29 00:41:14;;;;;;;4.63;1.98;;;9.10;99.90;;;;;;7417120;19;20018;-76
2023/10/29 00:43:46;;;;;;;5.18;1.95;;;9.10;99.90;;;;;;7535945;19;20018;-73
2023/10/29 00:46:20;;;;;;;3.85;1.92;;;9.00;99.90;;;;;;7558725;19;20022;-75
2023/10/29 00:48:52;;;;;;;5.82;2.22;;;9.00;99.90;;;;;;7542725;19;20007;-76
2023/10/29 00:51:26;;;;;;;4.25;2.13;;;8.90;99.90;;;;;;7564557;19;20396;-74
2023/10/29 00:53:59;;;;;;;3.95;1.80;;;8.80;99.90;;;;;;7541140;19;21202;-74
2023/10/29 00:56:33;;;;;;;6.28;2.08;;;8.80;99.90;;;;;;7539530;19;21488;-75
2023/10/29 00:59:06;;;;;;;5.88;1.92;;;8.70;99.90;;;;;;7525300;19;20262;-74
2023/10/29 01:01:39;;;;;;;3.88;1.58;;;8.80;99.90;;;;;;7562802;19;20011;-74
2023/10/29 01:04:12;;;;;;;4.30;2.15;;;8.70;99.90;;;;;;7538735;19;20014;-74
2023/10/29 01:06:46;;;;;;;3.83;2.22;;;8.70;99.90;;;;;;7546749;19;20021;-74
2023/10/29 01:09:20;;;;;;;3.10;2.30;;;8.70;99.90;;;;;;7519554;19;20026;-75
2023/10/29 01:11:53;;;;;;;3.28;2.10;;;8.70;99.90;;;;;;7542201;19;20022;-75
2023/10/29 01:14:26;;;;;;;3.65;1.98;;;8.60;99.90;;;;;;7551913;19;21250;-75
2023/10/29 01:16:58;;;;;;;4.55;1.83;;;8.60;99.90;;;;;;7533176;19;20011;-75
2023/10/29 01:19:31;;;;;;;5.17;2.30;;;8.50;99.90;;;;;;7530992;19;20701;-75
2023/10/29 01:22:04;;;;;;;5.72;2.50;;;8.50;99.90;;;;;;7534773;19;20010;-75
2023/10/29 01:24:39;;;;;;;4.18;2.20;;;8.50;99.90;;;;;;7523239;19;20020;-76
2023/10/29 01:27:11;;;;;;;6.18;2.28;;;8.50;99.90;;;;;;7518379;19;20688;-75
2023/10/29 01:29:44;;;;;;;3.45;1.70;;;8.60;99.90;;;;;;7525218;19;20621;-75
2023/10/29 01:32:16;;;;;;;2.28;1.83;;;8.60;99.90;;;;;;7549419;19;20093;-75
2023/10/29 01:34:50;;;;;;;4.50;2.47;;;8.60;99.90;;;;;;7547012;19;20089;-75
2023/10/29 01:37:23;;;;;;;3.67;1.35;;;8.50;99.90;;;;;;7538072;19;20556;-74
2023/10/29 01:39:56;;;;;;;5.85;1.88;;;8.50;99.90;;;;;;7530680;19;20022;-74
2023/10/29 01:42:28;;;;;;;5.95;2.15;;;8.50;99.90;;;;;;7551173;19;20022;-74
2023/10/29 01:45:03;;;;;;;3.88;1.98;;;8.40;99.90;;;;;;7534364;19;20038;-74
2023/10/29 01:47:36;;;;;;;3.08;1.52;;;8.30;99.90;;;;;;7542109;19;20044;-75
2023/10/29 01:50:10;;;;;;;4.38;1.90;;;8.30;99.90;;;;;;7540242;19;20025;-75
2023/10/29 01:52:43;;;;;;;2.90;1.80;;;8.30;99.90;;;;;;7518916;19;20011;-74
2023/10/29 01:55:15;;;;;;;2.92;1.80;;;8.20;99.90;;;;;;7533425;19;20033;-74
2023/10/29 01:57:48;;;;;;;3.20;1.75;;;8.20;99.90;;;;;;7555566;19;20022;-73
2023/10/29 02:00:20;;;;;;;2.93;1.90;;;8.20;99.90;;;;;;7510140;19;20023;-74
2023/10/29 02:02:53;;;;;;;4.95;1.85;;;8.20;99.90;;;;;;7512312;19;20135;-74
2023/10/29 02:05:26;;;;;;;3.08;2.10;;;8.30;99.90;;;;;;7543379;19;20023;-75
2023/10/29 02:08:01;;;;;;;2.95;1.50;;;8.20;99.90;;;;;;7519758;19;20010;-74
2023/10/29 02:10:33;;;;;;;6.47;1.90;;;8.20;99.90;;;;;;7520017;19;20050;-72
2023/10/29 02:13:06;;;;;;;4.20;1.80;;;8.10;99.90;;;;;;7523710;19;20068;-74
2023/10/29 02:15:38;;;;;;;2.38;1.90;;;8.00;99.90;;;;;;7542204;19;20597;-75
2023/10/29 02:18:11;;;;;;;3.58;1.70;;;8.00;99.90;;;;;;7526407;19;20029;-75
2023/10/29 02:20:44;;;;;;;4.53;1.70;;;8.00;99.90;;;;;;7536423;19;20021;-74
2023/10/29 02:23:16;;;;;;;3.03;1.77;;;7.90;99.90;;;;;;7519542;19;21862;-74
2023/10/29 02:25:49;;;;;;;3.45;1.52;;;7.80;99.90;;;;;;7541074;19;20014;-74
2023/10/29 02:28:21;;;;;;;8.63;2.10;;;7.90;99.90;;;;;;7532660;19;20667;-74
2023/10/29 02:30:54;;;;;;;3.28;1.70;;;7.80;99.90;;;;;;7511123;19;20025;-74
2023/10/29 02:33:26;;;;;;;3.78;1.67;;;7.80;99.90;;;;;;7527264;19;20070;-74
2023/10/29 02:35:59;;;;;;;3.78;2.20;;;7.80;99.90;;;;;;7528831;19;20014;-75
2023/10/29 02:38:32;;;;;;;2.25;1.90;;;7.80;99.90;;;;;;7518941;19;20668;-75
2023/10/29 02:41:05;;;;;;;5.70;1.90;;;7.70;99.90;;;;;;7522155;19;20634;-75
2023/10/29 02:43:41;;;;;;;5.97;1.77;;;7.70;99.90;;;;;;7514033;19;20102;-76
2023/10/29 02:46:13;;;;;;;4.32;2.08;;;7.70;99.90;;;;;;7508554;19;22311;-74
2023/10/29 02:48:45;;;;;;;8.48;2.05;;;7.60;99.90;;;;;;7522720;19;20018;-73
2023/10/29 02:51:17;;;;;;;4.68;1.92;;;7.60;99.90;;;;;;7529481;19;20025;-76
2023/10/29 02:53:50;;;;;;;4.18;1.80;;;7.70;99.90;;;;;;7511457;19;20018;-75
2023/10/29 02:56:22;;;;;;;2.20;1.60;;;7.70;99.90;;;;;;7519735;19;20018;-73
2023/10/29 02:58:55;;;;;;;5.85;1.40;;;7.70;99.90;;;;;;7516073;19;20046;-75
2023/10/29 03:01:27;;;;;;;2.25;1.40;;;7.80;99.90;;;;;;7516840;19;20102;-75
2023/10/29 03:04:02;;;;;;;7.65;1.77;;;7.90;99.90;;;;;;7548069;19;20864;-75
2023/10/29 03:06:43;;;;;;;2.35;1.60;;;7.90;99.90;;;;;;7562924;19;20018;-75
2023/10/29 03:09:16;;;;;;;3.85;1.70;;;7.90;99.90;;;;;;7536597;19;20018;-74
2023/10/29 03:11:49;;;;;;;2.92;1.83;;;8.00;99.90;;;;;;7542264;19;20022;-73
2023/10/29 03:14:21;;;;;;;4.10;1.48;;;8.00;99.90;;;;;;7536116;19;20453;-75
2023/10/29 03:16:54;;;;;;;1.55;1.40;;;8.10;99.90;;;;;;7540649;19;20396;-73
2023/10/29 03:19:27;;;;;;;3.15;1.73;;;8.20;99.90;;;;;;7549275;19;20010;-75
2023/10/29 03:22:01;;;;;;;2.65;1.55;;;8.30;99.90;;;;;;7553473;19;20025;-75
2023/10/29 03:24:34;;;;;;;2.92;1.30;;;8.40;99.90;;;;;;7527731;19;21081;-75
2023/10/29 03:27:07;;;;;;;3.22;1.30;;;8.30;99.90;;;;;;7549870;19;20065;-75
2023/10/29 03:29:39;;;;;;;3.75;1.55;;;8.30;99.90;;;;;;7522163;19;20035;-75
2023/10/29 03:32:11;;;;;;;2.65;1.35;;;8.30;99.90;;;;;;7541359;19;20022;-75
2023/10/29 03:34:43;;;;;;;2.60;1.40;;;8.40;99.90;;;;;;7540278;19;20670;-75
2023/10/29 03:37:16;;;;;;;1.98;1.42;;;8.50;99.90;;;;;;7538388;19;20022;-74
2023/10/29 03:39:50;;;;;;;3.08;1.48;;;8.50;99.90;;;;;;7544606;19;20412;-74
2023/10/29 03:42:23;;;;;;;4.35;1.55;;;8.50;99.90;;;;;;7539153;19;20020;-74
2023/10/29 03:44:55;;;;;;;4.82;1.40;;;8.60;99.90;;;;;;7536692;19;20018;-74
2023/10/29 03:47:28;;;;;;;1.80;1.60;;;8.50;99.90;;;;;;7542511;19;20121;-73
2023/10/29 03:50:00;;;;;;;1.90;1.10;;;8.50;99.90;;;;;;7545642;19;20011;-73
2023/10/29 03:52:32;;;;;;;1.95;1.38;;;8.50;99.90;;;;;;7528519;19;20014;-74
2023/10/29 03:55:05;;;;;;;1.58;1.15;;;8.60;99.90;;;;;;7539428;19;20018;-74
2023/10/29 03:57:38;;;;;;;1.92;1.00;;;8.60;99.90;;;;;;7542476;19;20018;-74
2023/10/29 04:00:11;;;;;;;2.77;1.50;;;8.60;99.90;;;;;;7531569;19;20057;-74
2023/10/29 04:02:44;;;;;;;1.40;1.08;;;8.60;99.90;;;;;;7533569;19;20025;-76
2023/10/29 04:05:16;;;;;;;2.17;1.30;;;8.50;99.90;;;;;;7536152;19;20025;-72
2023/10/29 04:07:50;;;;;;;;;;;8.60;99.90;;;;;;7538844;19;20021;-73
2023/10/29 04:10:22;;;;;;;2.20;1.60;;;8.50;99.90;;;;;;7526447;19;19926;-72
2023/10/29 04:12:55;;;;;;;5.28;1.50;;;8.50;99.90;;;;;;7534540;19;20018;-76
2023/10/29 04:15:28;;;;;;;3.00;1.58;;;8.50;99.90;;;;;;7534176;19;20021;-73
2023/10/29 04:18:00;;;;;;;2.90;1.35;;;8.40;99.90;;;;;;7536820;19;20026;-73
2023/10/29 04:20:33;;;;;;;2.65;1.55;;;8.40;99.90;;;;;;7536526;19;20015;-73
2023/10/29 04:23:05;;;;;;;2.20;1.38;;;8.50;99.90;;;;;;7539021;19;20021;-74
2023/10/29 04:25:38;;;;;;;2.20;1.52;;;8.50;99.90;;;;;;7532286;19;21707;-74
2023/10/29 04:28:11;;;;;;;6.90;1.65;;;8.50;99.90;;;;;;7549317;19;20045;-74
2023/10/29 04:30:44;;;;;;;1.60;1.27;;;8.50;99.90;;;;;;7525669;19;20022;-75
2023/10/29 04:33:16;;;;;;;2.53;1.40;;;8.60;99.90;;;;;;7532165;19;20010;-75
2023/10/29 04:35:49;;;;;;;1.63;1.23;;;8.60;99.90;;;;;;7521520;19;20014;-75
2023/10/29 04:38:21;;;;;;;1.93;1.33;;;8.60;99.90;;;;;;7540045;19;20018;-76
2023/10/29 04:40:54;;;;;;;9.10;1.70;;;8.50;99.90;;;;;;7536702;19;20026;-76
2023/10/29 04:43:26;;;;;;;2.33;1.50;;;8.50;99.90;;;;;;7539131;19;20010;-75
2023/10/29 04:45:58;;;;;;;1.92;1.30;;;8.50;99.90;;;;;;7540340;19;20022;-75
2023/10/29 04:48:30;;;;;;;3.58;1.27;;;8.40;99.90;;;;;;7543612;19;20022;-77
2023/10/29 04:51:06;;;;;;;2.78;1.30;;;8.40;99.90;;;;;;7534757;19;20524;-77
2023/10/29 04:53:38;;;;;;;1.50;1.20;;;8.40;99.90;;;;;;7547662;19;20014;-76
2023/10/29 04:56:12;;;;;;;4.20;1.55;;;8.40;99.90;;;;;;7526933;19;20022;-74
2023/10/29 04:58:44;;;;;;;1.47;1.17;;;8.30;99.90;;;;;;7537071;19;20814;-73
2023/10/29 05:01:18;;;;;;;1.67;1.02;;;8.30;99.90;;;;;;7540219;19;20018;-76
2023/10/29 05:03:51;;;;;;;1.63;0.93;;;8.30;99.90;;;;;;7536133;19;20380;-74
2023/10/29 05:06:23;;;;;;;2.65;1.15;;;8.30;99.90;;;;;;7541799;19;20014;-76
2023/10/29 05:08:56;;;;;;;2.80;1.60;;;8.30;99.90;;;;;;7530410;19;20710;-76
2023/10/29 05:11:31;;;;;;;1.60;1.40;;;8.40;99.90;;;;;;7534125;19;20011;-76
2023/10/29 05:14:04;;;;;;;2.42;1.20;;;8.40;99.90;;;;;;7543377;19;20014;-76
2023/10/29 05:16:36;;;;;;;1.33;1.20;;;8.40;99.90;;;;;;7532616;19;20587;-76
2023/10/29 05:19:09;;;;;;;2.75;1.42;;;8.50;99.90;;;;;;7533392;19;20022;-75
2023/10/29 05:21:42;;;;;;;2.17;1.10;;;8.50;99.90;;;;;;7532318;19;20014;-75
2023/10/29 05:24:15;;;;;;;4.53;1.52;;;8.50;99.90;;;;;;7535606;19;20014;-75
2023/10/29 05:26:48;;;;;;;;;;;8.50;99.90;;;;;;7533846;19;20015;-74
2023/10/29 05:29:21;;;;;;;2.70;1.60;;;8.50;99.90;;;;;;7528273;19;19922;-76
2023/10/29 05:31:53;;;;;;;2.05;1.15;;;8.50;99.90;;;;;;7538450;19;20018;-75
2023/10/29 05:34:26;;;;;;;2.53;1.30;;;8.50;99.90;;;;;;7533201;19;20048;-75
2023/10/29 05:36:59;;;;;;;2.80;1.10;;;8.50;99.90;;;;;;7540051;19;20026;-75
2023/10/29 05:39:32;;;;;;;2.00;1.10;;;8.50;99.90;;;;;;7529441;19;20025;-75
2023/10/29 05:42:04;;;;;;;4.30;1.40;;;8.50;99.90;;;;;;7539985;19;20568;-74
2023/10/29 05:44:37;;;;;;;3.23;1.33;;;8.60;99.90;;;;;;7532218;19;20278;-76
2023/10/29 05:47:09;;;;;;;4.32;1.42;;;8.60;99.90;;;;;;7527314;19;20014;-75
2023/10/29 05:49:42;;;;;;;2.78;1.20;;;8.60;99.90;;;;;;7521646;19;20014;-75
2023/10/29 05:52:14;;;;;;;1.73;1.10;;;8.60;99.90;;;;;;7529390;19;20037;-74
2023/10/29 05:54:46;;;;;;;2.58;1.10;;;8.60;99.90;;;;;;7532995;19;20025;-74
2023/10/29 05:57:19;;;;;;;2.30;1.35;;;8.60;99.90;;;;;;7537153;19;20018;-75
2023/10/29 05:59:52;;;;;;;2.83;1.10;;;8.60;99.90;;;;;;7527121;19;20018;-76
2023/10/29 06:02:24;;;;;;;2.40;1.40;;;8.60;99.90;;;;;;7525586;19;20334;-75
2023/10/29 06:04:56;;;;;;;4.10;1.48;;;8.60;99.90;;;;;;7531089;19;20018;-75
2023/10/29 06:07:29;;;;;;;3.38;1.35;;;8.70;99.90;;;;;;7530125;19;20018;-75
2023/10/29 06:10:02;;;;;;;2.60;1.20;;;8.70;99.90;;;;;;7533505;19;20029;-76
2023/10/29 06:12:35;;;;;;;4.00;1.42;;;8.70;99.90;;;;;;7520374;19;20029;-74
2023/10/29 06:15:09;;;;;;;3.67;1.63;;;8.80;99.90;;;;;;7530037;19;20061;-76
2023/10/29 06:17:45;;;;;;;4.70;1.50;;;8.80;99.90;;;;;;7497892;19;20017;-76
2023/10/29 06:20:20;;;;;;;4.13;1.83;;;8.90;99.90;;;;;;7519773;19;20294;-75
2023/10/29 06:22:53;;;;;;;2.53;1.10;;;9.00;99.90;;;;;;7529089;19;20475;-74
2023/10/29 06:25:26;;;;;;;3.15;1.58;;;9.10;99.90;;;;;;7504695;19;20023;-75
2023/10/29 06:27:59;;;;;;;2.38;1.30;;;9.20;99.90;;;;;;7507277;19;20333;-74
2023/10/29 06:30:31;;;;;;;3.65;1.42;;;9.30;99.90;;;;;;7523191;19;20022;-74
2023/10/29 06:33:04;;;;;;;1.98;1.30;;;9.40;99.90;;;;;;7516711;19;20134;-73
2023/10/29 06:35:38;;;;;;;2.35;1.25;;;9.60;99.90;;;;;;7517074;19;20022;-75
2023/10/29 06:38:11;;;;;;;2.83;1.25;;;9.70;99.90;;;;;;7522772;19;20015;-75
2023/10/29 06:40:44;;;;;;;2.95;1.38;;;9.80;99.90;;;;;;7509441;19;20019;-76
2023/10/29 06:43:17;;;;;;;1.95;1.02;;;9.80;99.90;;;;;;7467551;19;20031;-73
2023/10/29 06:45:50;;;;;;;3.30;1.60;;;9.90;99.90;;;;;;7455869;19;20006;-74
2023/10/29 06:48:22;;;;;;;;;;;10.00;99.90;;;;;;7502959;19;20040;-74
2023/10/29 06:50:55;;;;;;;1.95;0.95;;;10.10;99.90;;;;;;7498652;19;19959;-73
2023/10/29 06:53:28;;;;;;;3.47;1.10;;;10.10;99.90;;;;;;7493793;19;20673;-74
2023/10/29 06:56:04;;;;;;;2.35;1.08;;;10.20;99.90;;;;;;7468413;19;20058;-74
2023/10/29 06:58:38;;;;;;;3.08;1.40;;;10.20;99.90;;;;;;7483476;19;21763;-76
2023/10/29 07:01:11;;;;;;;2.58;1.23;;;10.20;99.90;;;;;;7473376;19;20048;-74
2023/10/29 07:03:43;;;;;;;2.97;1.57;;;10.30;99.90;;;;;;7467259;19;20018;-75
2023/10/29 07:06:17;;;;;;;2.20;1.42;;;10.30;99.90;;;;;;7429869;19;20025;-75
2023/10/29 07:08:49;;;;;;;2.43;1.33;;;10.40;99.90;;;;;;7452975;19;20411;-75
2023/10/29 07:11:23;;;;;;;2.93;1.50;;;10.50;99.90;;;;;;7424878;19;20021;-76
2023/10/29 07:13:56;;;;;;;;;;;10.60;99.90;;;;;;7455875;19;20018;-74
2023/10/29 07:16:28;;;;;;;3.75;1.60;;;10.70;99.90;;;;;;7413109;19;20428;-73
2023/10/29 07:19:01;;;;;;;5.00;1.63;;;10.80;99.90;;;;;;7430364;19;21429;-76
2023/10/29 07:21:35;;;;;;;3.13;1.05;;;10.90;99.90;;;;;;7482276;19;20018;-77
2023/10/29 07:24:07;;;;;;;2.35;1.40;;;11.20;99.90;;;;;;7505897;19;20011;-74
2023/10/29 07:26:41;;;;;;;4.70;2.00;;;11.30;99.90;;;;;;7457840;19;20021;-76
2023/10/29 07:29:13;;;;;;;6.07;1.88;;;11.40;99.90;;;;;;7475443;19;20022;-75
2023/10/29 07:31:47;;;;;;;4.30;1.73;;;11.60;99.90;;;;;;7487807;19;21165;-75
2023/10/29 07:34:20;;;;;;;3.97;1.42;;;11.80;99.90;;;;;;7475869;19;20793;-74
2023/10/29 07:36:52;;;;;;;5.15;1.52;;;11.90;99.90;;;;;;7462925;19;20022;-75
2023/10/29 07:39:25;;;;;;;2.92;1.60;;;12.10;99.90;;;;;;7432993;19;20019;-76
2023/10/29 07:41:58;;;;;;;2.47;1.38;;;12.20;99.90;;;;;;7463091;19;20014;-75
2023/10/29 07:44:31;;;;;;;2.78;1.48;;;12.30;99.90;;;;;;7470896;19;20019;-74
2023/10/29 07:47:08;;;;;;;1.60;1.27;;;12.30;99.90;;;;;;7426948;19;21618;-75
2023/10/29 07:49:41;;;;;;;2.78;1.10;;;12.30;99.90;;;;;;7441185;19;20968;-74
2023/10/29 07:52:13;;;;;;;4.30;1.77;;;12.30;99.90;;;;;;7507430;19;20022;-74
2023/10/29 07:54:45;;;;;;;1.70;1.15;;;12.40;99.90;;;;;;7474109;19;22572;-75
2023/10/29 07:57:18;;;;;;;4.22;1.48;;;12.40;99.90;;;;;;7451535;19;21216;-74
2023/10/29 07:59:50;;;;;;;2.33;1.65;;;12.50;99.90;;;;;;7449949;19;20014;-75
2023/10/29 08:02:23;;;;;;;2.53;1.40;;;12.60;99.90;;;;;;7463747;19;20019;-75
2023/10/29 08:04:55;;;;;;;3.45;1.33;;;12.70;99.90;;;;;;7450560;19;20047;-74
2023/10/29 08:07:29;;;;;;;2.95;1.90;;;12.70;99.90;;;;;;7452206;19;20139;-74
2023/10/29 08:10:02;;;;;;;2.45;1.35;;;12.80;99.90;;;;;;7479486;19;20095;-75
2023/10/29 08:12:35;;;;;;;2.05;1.27;;;12.90;99.90;;;;;;7480764;19;20428;-74
2023/10/29 08:15:09;;;;;;;3.03;1.40;;;13.00;99.90;;;;;;7507216;19;22392;-75
2023/10/29 08:17:41;;;;;;;;;;;13.10;99.90;;;;;;7486489;19;21562;-73
2023/10/29 08:20:14;;;;;;;2.22;1.00;;;13.20;99.90;;;;;;7500066;19;19933;-74
2023/10/29 08:22:47;;;;;;;4.65;1.25;;;13.40;99.90;;;;;;7519673;19;20694;-74
2023/10/29 08:25:19;;;;;;;1.70;1.08;;;13.50;99.90;;;;;;7513034;19;20017;-74
2023/10/29 08:27:51;;;;;;;3.55;1.27;;;13.60;99.90;;;;;;7442784;19;22711;-74
2023/10/29 08:30:24;;;;;;;1.60;1.10;;;13.70;99.90;;;;;;7426926;19;20714;-74
2023/10/29 08:32:56;;;;;;;5.53;1.40;;;13.80;99.90;;;;;;7420804;19;20645;-74
2023/10/29 08:35:29;;;;;;;2.83;1.47;;;13.90;99.90;;;;;;7450871;19;20018;-74
2023/10/29 08:38:01;;;;;;;3.67;1.42;;;14.10;99.90;;;;;;7464892;19;20110;-74
2023/10/29 08:40:33;;;;;;;2.00;1.50;;;14.20;99.90;;;;;;7494379;19;20011;-74
2023/10/29 08:43:06;;;;;;;2.17;1.20;;;14.30;99.90;;;;;;7528515;19;20026;-74
2023/10/29 08:45:41;;;;;;;4.90;1.60;;;14.40;99.90;;;;;;7536770;19;21197;-77
2023/10/29 08:48:15;;;;;;;2.67;1.23;;;14.50;99.90;;;;;;7552025;19;20362;-76
2023/10/29 08:50:47;;;;;;;1.30;0.90;;;14.60;99.90;;;;;;7525353;19;20057;-76
2023/10/29 08:53:20;;;;;;;3.15;1.40;;;14.80;99.90;;;;;;7494664;19;20917;-76
2023/10/29 08:55:53;;;;;;;1.95;1.10;;;14.90;99.90;;;;;;7516788;19;20014;-76
2023/10/29 08:58:26;;;;;;;5.18;0.90;;;15.00;99.90;;;;;;7535034;19;20491;-74
2023/10/29 09:00:58;;;;;;;1.75;0.98;;;15.20;99.80;;;;;;7524310;19;20562;-76
2023/10/29 09:03:31;;;;;;;1.83;1.13;;;15.40;99.00;;;;;;7534175;19;20006;-77
2023/10/29 09:06:06;;;;;;;2.10;1.00;;;15.50;98.80;;;;;;7487926;19;20014;-75
2023/10/29 09:08:40;;;;;;;1.75;1.02;;;15.60;98.70;;;;;;7538473;19;20014;-76
2023/10/29 09:11:14;;;;;;;1.48;1.00;;;15.80;98.50;;;;;;7512951;19;20019;-77
2023/10/29 09:13:46;;;;;;;2.05;1.20;;;15.90;97.50;;;;;;7509172;19;20019;-75
2023/10/29 09:16:19;;;;;;;1.23;0.70;;;16.00;96.80;;;;;;7463711;19;20121;-77
2023/10/29 09:18:51;;;;;;;1.10;0.90;;;16.20;95.90;;;;;;7491498;19;20090;-78
2023/10/29 09:21:24;;;;;;;1.58;0.80;;;16.30;96.50;;;;;;7504956;19;20056;-76
2023/10/29 09:23:56;;;;;;;2.00;1.08;;;16.30;95.80;;;;;;7508792;19;20006;-77
2023/10/29 09:26:29;;;;;;;1.65;1.08;;;16.40;95.30;;;;;;7498277;19;21126;-76
2023/10/29 09:29:02;;;;;;;2.03;1.10;;;16.60;94.30;;;;;;7488820;19;20019;-76
2023/10/29 09:31:35;;;;;;;2.17;0.93;;;16.60;94.30;;;;;;7483354;19;20017;-76
2023/10/29 09:34:08;;;;;;;0.88;0.70;;;16.70;93.50;;;;;;7495520;19;20034;-77
2023/10/29 09:36:43;;;;;;;3.50;0.98;;;16.70;93.20;;;;;;7523024;19;20015;-74
2023/10/29 09:39:17;;;;;;;4.65;0.88;;;16.70;92.30;;;;;;7536301;19;20014;-74
2023/10/29 09:41:53;;;;;;;1.20;0.95;;;16.80;92.40;;;;;;7517557;19;20014;-77
2023/10/29 09:44:33;;;;;;;3.63;1.15;;;16.80;92.70;;;;;;7533110;19;20049;-75
2023/10/29 09:47:17;;;;;;;2.92;1.02;;;16.80;93.10;;;;;;7525677;19;20019;-76
2023/10/29 09:49:51;;;;;;;1.50;0.90;;;16.90;93.40;;;;;;7521058;19;20021;-77
2023/10/29 09:52:29;;;;;;;0.90;0.70;;;17.00;92.70;;;;;;7512388;19;20111;-78
2023/10/29 09:55:04;;;;;;;3.88;1.10;;;17.10;92.60;;;;;;7532360;19;20052;-77
2023/10/29 09:57:36;;;;;;;2.15;0.80;;;17.20;93.70;;;;;;7523227;19;20021;-78
2023/10/29 10:00:09;;;;;;;0.98;0.70;;;17.30;92.60;;;;;;7503805;19;20019;-76
2023/10/29 10:02:55;;;;;;;2.83;0.85;;;17.50;91.50;;;;;;7508217;19;20010;-79
2023/10/29 10:05:29;;;;;;;1.63;0.80;;;17.70;90.50;;;;;;7534845;19;20021;-79
2023/10/29 10:08:02;;;;;;;2.38;1.00;;;17.80;90.60;;;;;;7512427;19;20031;-77
2023/10/29 10:10:40;;;;;;;1.05;0.82;;;17.90;90.40;;;;;;7490496;19;20022;-77
2023/10/29 10:13:14;;;;;;;2.40;0.80;;;18.10;90.60;;;;;;7503004;19;20100;-76
2023/10/29 10:15:51;;;;;;;1.20;0.90;;;18.20;88.20;;;;;;7503665;19;20014;-76
2023/10/29 10:18:23;;;;;;;1.30;0.90;;;18.30;88.50;;;;;;7540418;19;20718;-80
2023/10/29 10:21:00;;;;;;;2.15;0.82;;;18.50;88.80;;;;;;7443757;19;20022;-78
2023/10/29 10:23:52;;;;;;;1.30;0.98;;;18.70;86.70;;;;;;7437337;19;20017;-75
2023/10/29 10:26:30;;;;;;;1.45;0.75;;;18.80;85.30;;;;;;7461611;19;20018;-77
2023/10/29 10:29:05;;;;;;;1.90;0.70;;;19.00;83.80;;;;;;7475322;19;20014;-76
2023/10/29 10:31:38;;;;;;;1.65;0.85;;;19.20;84.00;;;;;;7470816;19;20024;-74
2023/10/29 10:34:15;;;;;;;1.45;0.80;;;19.30;85.20;;;;;;7465445;19;21231;-76
2023/10/29 10:36:49;;;;;;;2.38;0.80;;;19.60;80.40;;;;;;7503079;19;20412;-74
2023/10/29 10:39:22;;;;;;;2.08;1.00;;;19.70;80.90;;;;;;7490339;19;21087;-76
2023/10/29 10:41:55;;;;;;;;;;;19.90;78.50;;;;;;7511745;19;20018;-78
2023/10/29 10:44:31;;;;;;;1.20;0.85;;;20.00;78.10;;;;;;7502138;19;19942;-75
2023/10/29 10:47:04;;;;;;;1.97;0.93;;;20.10;73.50;;;;;;7482951;19;21913;-76
2023/10/29 10:49:40;;;;;;;1.35;0.68;;;20.30;72.20;;;;;;7509665;19;20892;-74
2023/10/29 10:52:14;;;;;;;1.20;0.60;;;20.40;73.70;;;;;;7484162;19;20021;-77
2023/10/29 10:54:48;;;;;;;1.70;0.80;;;20.60;73.50;;;;;;7493735;19;20111;-76
2023/10/29 10:57:23;;;;;;;1.98;0.75;;;20.70;71.70;;;;;;7497622;19;20022;-74
2023/10/29 10:59:59;;;;;;;2.13;0.85;;;20.70;71.00;;;;;;7490172;19;20018;-69
2023/10/29 11:02:36;;;;;;;3.10;0.77;;;20.80;69.30;;;;;;7492249;19;20021;-76
2023/10/29 11:05:16;;;;;;;1.48;0.85;;;20.80;69.30;;;;;;7525470;19;20011;-75
2023/10/29 11:07:50;;;;;;;1.00;0.60;;;20.90;68.80;;;;;;7521653;19;20117;-75
2023/10/29 11:10:26;;;;;;;2.65;0.90;;;21.00;69.60;;;;;;7524055;19;20010;-73
2023/10/29 11:13:17;;;;;;;2.35;1.00;;;21.00;67.90;;;;;;7538139;19;20015;-74
2023/10/29 11:15:51;;;;;;;0.93;0.63;;;21.10;69.50;;;;;;7520144;19;20026;-76
2023/10/29 11:18:28;;;;;;;1.73;0.70;;;21.10;68.00;;;;;;7519133;19;21191;-79
2023/10/29 11:21:04;;;;;;;1.42;0.80;;;21.10;68.70;;;;;;7489473;19;20053;-75
2023/10/29 11:23:38;;;;;;;4.50;0.82;;;20.90;70.70;;;;;;7466662;19;20010;-77
2023/10/29 11:26:21;;;;;;;3.28;1.00;;;20.90;68.20;;;;;;7484765;19;20681;-77
2023/10/29 11:28:54;;;;;;;1.13;0.60;;;20.80;68.50;;;;;;7495875;19;20225;-75
2023/10/29 11:31:27;;;;;;;0.88;0.55;;;20.70;69.70;;;;;;7471976;19;20048;-74
2023/10/29 11:34:11;;;;;;;2.28;0.80;;;20.60;70.40;;;;;;7494549;19;20058;-75
2023/10/29 11:36:43;;;;;;;2.50;0.85;;;20.60;70.20;;;;;;7561034;19;20025;-75
2023/10/29 11:39:15;;;;;;;2.00;0.98;;;20.60;70.60;;;;;;7525482;19;20014;-76
2023/10/29 11:41:49;;;;;;;3.95;0.80;;;20.60;70.30;;;;;;7557047;19;21029;-75
2023/10/29 11:44:29;;;;;;;1.38;0.85;;;20.70;70.10;;;;;;7593920;19;20017;-75
2023/10/29 11:47:03;;;;;;;2.10;1.08;;;20.60;69.10;;;;;;7562412;19;20066;-76
2023/10/29 11:49:45;;;;;;;2.33;1.05;;;20.50;69.70;;;;;;7564861;19;20022;-75
2023/10/29 11:52:17;;;;;;;1.85;1.00;;;20.50;70.90;;;;;;7550927;19;20085;-74
2023/10/29 11:55:00;;;;;;;4.30;1.50;;;20.40;70.00;;;;;;7547906;19;21182;-74
2023/10/29 11:57:33;;;;;;;3.50;1.35;;;20.40;70.20;;;;;;7518642;19;20711;-77
2023/10/29 12:00:06;;;;;;;;;;;20.30;72.80;;;;;;7517608;19;20060;-74
2023/10/29 12:02:42;;;;;;;2.03;1.15;;;20.30;70.70;;;;;;7532956;19;19966;-78
2023/10/29 12:05:15;;;;;;;1.95;0.85;;;20.30;71.10;;;;;;7527669;19;20021;-78
2023/10/29 12:07:58;;;;;;;1.67;0.88;;;20.40;70.20;;;;;;7531485;19;21304;-78
2023/10/29 12:10:31;;;;;;;3.00;0.82;;;20.40;71.30;;;;;;7524418;19;20018;-75
2023/10/29 12:13:04;;;;;;;1.38;0.93;;;20.50;70.50;;;;;;7487317;19;20015;-76
2023/10/29 12:15:36;;;;;;;2.05;0.80;;;20.70;70.00;;;;;;7505295;19;20664;-75
2023/10/29 12:18:20;;;;;;;3.03;0.80;;;20.80;69.00;;;;;;7468824;19;20783;-76
2023/10/29 12:21:07;;;;;;;2.10;0.93;;;21.00;69.70;;;;;;7499430;19;20011;-76
2023/10/29 12:23:40;;;;;;;2.60;0.90;;;21.00;69.20;;;;;;7489422;19;20608;-77
2023/10/29 12:26:13;;;;;;;0.93;0.60;;;21.00;69.10;;;;;;7510152;19;20057;-74
2023/10/29 12:28:49;;;;;;;1.33;0.90;;;21.10;67.70;;;;;;7462713;19;20014;-75
2023/10/29 12:31:26;;;;;;;1.65;0.70;;;21.30;68.30;;;;;;7492866;19;25368;-76
2023/10/29 12:34:02;;;;;;;1.02;0.70;;;21.60;67.80;;;;;;7480310;19;20014;-76
2023/10/29 12:36:35;;;;;;;1.00;0.60;;;21.90;66.20;;;;;;7486263;19;20138;-75
2023/10/29 12:39:13;;;;;;;2.63;0.88;;;21.90;66.60;;;;;;7478487;19;21950;-78
2023/10/29 12:41:52;;;;;;;0.85;0.60;;;21.80;66.90;;;;;;7510351;19;20277;-75
2023/10/29 12:44:25;;;;;;;2.20;0.98;;;21.90;65.40;;;;;;7571424;19;20014;-76
2023/10/29 12:46:57;;;;;;;0.85;0.60;;;21.90;66.00;;;;;;7590076;19;20215;-77
2023/10/29 12:49:33;;;;;;;1.02;0.55;;;22.20;65.90;;;;;;7589790;19;20019;-76
2023/10/29 12:52:12;;;;;;;1.60;0.82;;;22.30;64.20;;;;;;7580510;19;20014;-76
2023/10/29 12:54:46;;;;;;;0.77;0.63;;;22.40;64.40;;;;;;7597950;19;20025;-78
2023/10/29 12:57:19;;;;;;;1.85;0.80;;;22.80;63.90;;;;;;7587327;19;20014;-77
2023/10/29 12:59:51;;;;;;;0.95;0.60;;;22.70;64.10;;;;;;7585610;19;20014;-74
2023/10/29 13:02:27;;;;;;;0.68;0.57;;;22.50;64.40;;;;;;7585174;19;21679;-77
2023/10/29 13:04:59;;;;;;;1.52;0.60;;;22.40;63.80;;;;;;7584991;19;20903;-77
2023/10/29 13:07:32;;;;;;;3.88;0.82;;;22.40;66.70;;;;;;7596510;19;20015;-76
2023/10/29 13:10:07;;;;;;;1.20;0.70;;;22.30;64.60;;;;;;7598599;19;20014;-76
2023/10/29 13:12:41;;;;;;;0.82;0.50;;;22.50;64.40;;;;;;7600933;19;20034;-76
2023/10/29 13:15:13;;;;;;;2.75;0.60;;;22.60;64.10;;;;;;7590063;19;21484;-78
2023/10/29 13:17:46;;;;;;;1.38;0.52;;;22.50;64.50;;;;;;7600689;19;20018;-77
2023/10/29 13:20:20;;;;;;;1.15;0.70;;;22.40;64.10;;;;;;7594442;19;20023;-76
2023/10/29 13:22:52;;;;;;;3.45;0.60;;;22.40;62.90;;;;;;7597234;19;20026;-77
2023/10/29 13:25:24;;;;;;;0.90;0.70;;;22.40;63.60;;;;;;7591862;19;20867;-76